Latest Weather Observations for Cowra

IDN60801

Issued at 11:42 am EDT Friday 15 November 2019 (issued every 10 minutes, with the page automatically refreshed every 10 minutes)

About weather observations | Map of weather stations | Latest weather observations for NSW | Other Formats
Station Details ID: 065111 Name: COWRA AIRPORT AWS Lat: -33.84 Lon: 148.65 Height: 300.4 m
Data from the previous 72 hours. | See also: Recent months at Cowra
Date/Time
EDT
Temp
°C
App
Temp
°C
Dew
Point
°C
Rel
Hum
%
Delta-T
°C
Wind Press
QNH
hPa
Press
MSL
hPa
Rain since
9am
mm
Dir  Spd
km/h
Gust
km/h
Spd
kts
Gust
kts
15/11:30am 25.8 20.2 1.2 20 11.8 WNW 20 32 11 17 1013.1 1012.1 0.0
15/11:00am 25.5 20.0 1.6 21 11.5 WSW 20 32 11 17 1013.7 1012.6 0.0
15/10:30am 24.6 19.4 2.7 24 10.7 W 19 28 10 15 1013.9 1012.9 0.0
15/10:00am 23.1 17.0 2.6 26 9.9 WNW 24 33 13 18 1013.8 1012.8 0.0
15/09:30am 21.6 17.9 4.7 33 8.4 NNW 13 20 7 11 1014.0 1013.0 0.0
15/09:00am 19.6 14.8 4.5 37 7.4 N 19 24 10 13 1014.0 1013.0 0.0
15/08:30am 17.6 13.8 5.9 46 5.8 N 15 19 8 10 1014.1 1013.1 0.0
15/08:00am 15.4 12.5 4.8 49 5.1 N 9 13 5 7 1014.0 1013.0 0.0
15/07:30am 14.3 12.4 4.9 53 4.5 W 4 9 2 5 1013.9 1012.9 0.0
15/07:00am 12.3 11.2 5.0 61 3.4 CALM 0 0 0 0 1013.5 1012.4 0.0
15/06:30am 10.5 9.2 4.2 65 2.9 CALM 0 0 0 0 1013.2 1012.2 0.0
15/06:00am 11.0 8.6 4.5 64 3.0 ENE 6 7 3 4 1013.0 1012.0 0.0
15/05:30am 11.8 10.5 4.1 59 3.5 CALM 0 0 0 0 1013.0 1012.0 0.0
15/05:00am 12.4 9.5 4.9 60 3.5 NNE 9 11 5 6 1012.8 1011.8 0.0
15/04:30am 11.1 8.6 4.6 64 3.0 NNE 7 9 4 5 1012.8 1011.8 0.0
15/04:00am 11.1 9.8 4.3 63 3.1 CALM 0 0 0 0 1013.1 1012.1 0.0
15/03:30am 12.2 11.0 4.4 59 3.6 CALM 0 0 0 0 1013.0 1012.0 0.0
15/03:00am 13.3 12.0 4.2 54 4.2 CALM 0 0 0 0 1013.1 1012.1 0.0
15/02:30am 14.6 12.6 4.6 51 4.7 N 4 6 2 3 1013.3 1012.3 0.0
15/02:00am 14.9 13.7 4.6 50 4.9 CALM 0 0 0 0 1013.6 1012.5 0.0
15/01:30am 15.2 14.1 4.9 50 4.9 CALM 0 0 0 0 1013.8 1012.8 0.0
15/01:00am 14.7 13.5 4.7 51 4.7 CALM 0 0 0 0 1014.2 1013.2 0.0
15/12:30am 15.0 13.0 4.4 49 5.0 WNW 4 7 2 4 1014.3 1013.3 0.0
15/12:00am 15.6 13.0 4.3 47 5.3 W 7 9 4 5 1014.5 1013.5 0.0
 
Date/Time
EDT
Temp
°C
App
Temp
°C
Dew
Point
°C
Rel
Hum
%
Delta-T
°C
Wind Press
QNH
hPa
Press
MSL
hPa
Rain since
9am
mm
Dir  Spd
km/h
Gust
km/h
Spd
kts
Gust
kts
14/11:30pm 15.5 12.4 3.6 45 5.5 WSW 9 11 5 6 1014.6 1013.6 0.0
14/11:00pm 16.6 12.8 4.0 43 6.0 WSW 13 15 7 8 1014.7 1013.7 0.0
14/10:30pm 16.3 12.1 4.0 44 5.8 WSW 15 15 8 8 1014.7 1013.7 0.0
14/10:00pm 17.3 14.1 3.2 39 6.6 WSW 9 11 5 6 1014.5 1013.5 0.0
14/09:30pm 18.2 14.7 3.3 37 7.0 SW 11 11 6 6 1014.3 1013.3 0.0
14/09:00pm 18.7 15.5 2.9 35 7.4 WSW 9 11 5 6 1014.0 1013.0 0.0
14/08:30pm 21.0 16.8 3.7 32 8.4 WSW 15 20 8 11 1013.8 1012.8 0.0
14/08:00pm 21.1 17.2 3.3 31 8.6 WSW 13 17 7 9 1013.7 1012.6 0.0
14/07:30pm 23.2 18.0 2.7 26 9.9 W 19 24 10 13 1013.5 1012.4 0.0
14/07:00pm 24.4 19.2 2.5 24 10.7 W 19 26 10 14 1013.2 1012.2 0.0
14/06:30pm 25.1 19.1 3.1 24 10.9 WSW 24 28 13 15 1013.0 1012.0 0.0
14/06:00pm 25.5 19.9 3.5 24 11.0 WSW 22 32 12 17 1012.9 1011.9 0.0
14/05:30pm 25.6 20.0 3.6 24 11.0 W 22 32 12 17 1012.9 1011.9 0.0
14/05:00pm 26.2 21.1 4.1 24 11.2 WSW 20 35 11 19 1013.0 1012.0 0.0
14/04:30pm 25.5 20.4 4.0 25 10.8 NW 20 30 11 16 1013.2 1012.2 0.0
14/04:00pm 25.7 20.4 3.0 23 11.3 W 20 33 11 18 1013.5 1012.4 0.0
14/03:30pm 26.1 21.9 4.0 24 11.2 WSW 15 24 8 13 1013.8 1012.8 0.0
14/03:00pm 26.2 23.2 4.1 24 11.2 NW 9 20 5 11 1014.2 1013.2 0.0
14/02:30pm 25.3 19.7 3.3 24 10.9 WSW 22 30 12 16 1014.7 1013.7 0.0
14/02:00pm 24.6 20.0 3.8 26 10.4 WSW 17 26 9 14 1015.1 1014.1 0.0
14/01:30pm 23.5 19.6 3.4 27 9.9 S 13 20 7 11 1015.5 1014.5 0.0
14/01:00pm 22.7 18.4 3.3 28 9.5 SSW 15 26 8 14 1016.1 1015.1 0.0
14/12:30pm 21.7 17.0 2.9 29 9.0 SW 17 32 9 17 1016.5 1015.5 0.0
14/12:00pm 22.1 17.5 3.7 30 9.0 SW 17 30 9 16 1016.8 1015.9 0.0
14/11:30am 20.5 16.1 2.8 31 8.4 SW 15 20 8 11 1017.3 1016.3 0.0
14/11:00am 19.8 15.5 3.1 33 7.9 SSW 15 24 8 13 1017.5 1016.5 0.0
14/10:30am 20.0 14.9 3.3 33 8.0 WSW 19 30 10 16 1017.7 1016.7 0.0
14/10:00am 18.6 15.4 2.9 35 7.4 SW 9 20 5 11 1017.9 1016.9 0.0
14/09:30am 18.0 13.7 3.5 38 6.9 SW 15 24 8 13 1017.9 1016.9 0.0
14/09:00am 16.6 13.7 1.5 36 6.8 NE 6 9 3 5 1018.0 1017.0 0.0
14/08:30am 15.3 12.3 1.1 38 6.3 SE 6 11 3 6 1018.0 1017.0 0.0
14/08:00am 13.8 10.7 1.1 42 5.5 S 7 9 4 5 1017.8 1016.8 0.0
14/07:30am 13.2 10.4 1.8 46 5.0 E 6 7 3 4 1017.6 1016.6 0.0
14/07:00am 11.1 9.3 1.4 51 4.1 CALM 0 2 0 1 1017.1 1016.1 0.0
14/06:30am 8.9 7.2 1.6 60 3.1 CALM 0 6 0 3 1016.8 1015.9 0.0
14/06:00am 7.6 5.7 0.8 62 2.8 CALM 0 0 0 0 1016.5 1015.5 0.0
14/05:30am 8.1 5.8 0.6 59 3.1 NE 2 6 1 3 1016.3 1015.3 0.0
14/05:00am 7.9 5.2 0.2 58 3.1 N 4 7 2 4 1016.1 1015.1 0.0
14/04:30am 8.0 6.0 0.0 57 3.2 CALM 0 0 0 0 1016.2 1015.2 0.0
14/04:00am 8.5 6.5 0.0 55 3.4 CALM 0 0 0 0 1016.2 1015.2 0.0
14/03:30am 8.5 6.0 -0.8 52 3.7 SW 2 9 1 5 1016.2 1015.2 0.0
14/03:00am 9.2 6.7 -0.7 50 3.9 SSW 2 13 1 7 1016.2 1015.2 0.0
14/02:30am 10.1 7.7 -0.4 48 4.3 ENE 2 7 1 4 1016.2 1015.2 0.0
14/02:00am 10.8 7.5 0.0 47 4.4 E 7 9 4 5 1016.6 1015.7 0.0
14/01:30am 11.2 9.2 0.0 46 4.6 CALM 0 7 0 4 1016.8 1015.9 0.0
14/01:00am 12.3 9.1 -0.2 42 5.2 NW 6 9 3 5 1017.1 1016.1 0.0
14/12:30am 11.8 8.4 -0.4 43 5.0 NNW 7 9 4 5 1017.2 1016.2 0.0
14/12:00am 12.3 9.1 -0.6 41 5.3 NNW 6 11 3 6 1017.4 1016.4 0.0
 
Date/Time
EDT
Temp
°C
App
Temp
°C
Dew
Point
°C
Rel
Hum
%
Delta-T
°C
Wind Press
QNH
hPa
Press
MSL
hPa
Rain since
9am
mm
Dir  Spd
km/h
Gust
km/h
Spd
kts
Gust
kts
13/11:30pm 12.7 9.4 -1.2 38 5.7 NW 6 7 3 4 1017.4 1016.4 0.0
13/11:00pm 13.3 9.4 -1.8 35 6.1 W 9 11 5 6 1017.5 1016.5 0.0
13/10:30pm 13.6 9.3 -1.9 34 6.3 WSW 11 17 6 9 1017.5 1016.5 0.0
13/10:00pm 13.8 9.8 -2.2 33 6.5 WSW 9 15 5 8 1017.4 1016.4 0.0
13/09:30pm 14.0 9.6 -2.4 32 6.6 WSW 11 15 6 8 1017.1 1016.1 0.0
13/09:00pm 14.6 9.8 -2.3 31 6.9 WSW 13 13 7 7 1016.6 1015.7 0.0
13/08:30pm 15.8 11.0 -2.6 28 7.5 SW 13 17 7 9 1016.5 1015.5 0.0
13/08:00pm 17.7 11.6 -2.5 25 8.4 SW 20 28 11 15 1016.2 1015.2 0.0
13/07:30pm 18.6 11.7 -2.9 23 9.0 SW 24 32 13 17 1015.8 1014.8 0.0
13/07:00pm 19.6 11.9 -2.7 22 9.4 SW 28 35 15 19 1015.3 1014.3 0.0
13/06:30pm 20.4 12.7 -2.6 21 9.8 SW 28 41 15 22 1015.1 1014.1 0.0
13/06:00pm 20.7 12.2 -3.0 20 10.1 SW 32 43 17 23 1014.7 1013.7 0.0
13/05:30pm 21.2 12.9 -2.0 21 10.1 SW 32 41 17 22 1014.5 1013.5 0.0
13/05:00pm 21.0 14.1 -2.8 20 10.2 SW 24 35 13 19 1014.4 1013.4 0.0
13/04:30pm 21.5 14.2 -3.1 19 10.5 SW 26 41 14 22 1014.6 1013.6 0.0
13/04:00pm 21.2 13.8 -3.3 19 10.4 SW 26 44 14 24 1014.7 1013.7 0.0
13/03:30pm 21.2 13.5 -2.6 20 10.3 SW 28 41 15 22 1014.9 1013.9 0.0
13/03:04pm 20.6 14.3 -3.8 19 10.2 SW 20 39 11 21 1015.1 1014.1 0.0
13/03:00pm 20.3 14.1 -3.4 20 10.0 WSW 20 30 11 16 1015.1 1014.1 0.0
13/02:30pm 20.5 14.5 -3.2 20 10.0 SW 19 30 10 16 1015.5 1014.5 0.0
13/02:00pm 19.6 13.4 -3.3 21 9.6 SW 20 33 11 18 1015.9 1014.9 0.0
13/01:30pm 18.1 11.9 -3.3 23 8.8 WSW 20 30 11 16 1016.4 1015.4 0.0
13/01:00pm 18.4 12.0 -2.0 25 8.7 SW 22 35 12 19 1017.1 1016.1 0.0
13/12:30pm 17.1 10.7 -2.0 27 8.0 SW 22 37 12 20 1017.6 1016.6 0.0
13/12:00pm 17.0 9.0 -2.1 27 8.0 WSW 30 43 16 23 1017.7 1016.7 0.0
13/11:30am 16.0 9.2 -2.0 29 7.5 WSW 24 41 13 22 1018.0 1017.0 0.0
13/11:00am 15.2 8.4 -2.2 30 7.1 SW 24 33 13 18 1018.0 1017.0 0.0
13/10:30am 14.6 7.8 -1.5 33 6.7 SW 24 37 13 20 1018.1 1017.1 0.0
13/10:00am 14.1 8.2 -0.7 36 6.2 SW 20 32 11 17 1018.0 1017.0 0.0
13/09:30am 13.3 7.7 0.0 40 5.6 SSW 19 26 10 14 1017.8 1016.8 0.0
13/09:00am 12.3 6.7 -0.2 42 5.2 S 19 28 10 15 1017.8 1016.8 0.0
13/08:30am 11.7 5.1 -0.4 43 5.0 S 24 32 13 17 1017.7 1016.7 0.0
13/08:00am 11.1 4.9 -0.1 46 4.6 SSW 22 33 12 18 1017.5 1016.5 0.0
13/07:30am 10.6 5.0 1.4 53 3.9 SW 20 30 11 16 1017.1 1016.1 0.0
13/07:00am 10.1 5.9 1.7 56 3.6 WSW 13 20 7 11 1016.6 1015.7 0.0
13/06:30am 9.2 6.2 1.1 57 3.4 SSW 6 9 3 5 1016.3 1015.3 0.0
13/06:00am 8.9 4.2 1.1 58 3.2 SW 15 20 8 11 1016.0 1015.0 0.0
13/05:30am 9.2 4.6 1.4 58 3.3 SW 15 24 8 13 1015.4 1014.4 0.0
13/05:00am 9.5 4.9 -0.7 49 4.1 SW 13 20 7 11 1015.2 1014.2 0.0
13/04:30am 10.7 5.0 -0.7 45 4.6 WSW 19 26 10 14 1015.2 1014.2 0.0
13/04:00am 10.7 5.3 -1.7 42 4.9 WSW 17 22 9 12 1014.9 1013.9 0.0
13/03:30am 11.8 6.3 -2.0 38 5.5 WSW 17 24 9 13 1014.7 1013.7 0.0
13/03:00am 12.6 6.6 -1.7 37 5.8 SW 20 33 11 18 1014.7 1013.7 0.0
13/02:30am 11.9 7.1 -2.3 37 5.6 SW 13 17 7 9 1014.4 1013.4 0.0
13/02:00am 13.2 7.1 -2.3 34 6.2 SW 20 30 11 16 1014.2 1013.2 0.0
13/01:30am 11.9 7.0 -3.1 35 5.8 WSW 13 17 7 9 1014.2 1013.2 0.0
13/01:00am 13.7 7.7 -2.7 32 6.6 WSW 19 24 10 13 1014.0 1013.0 0.0
13/12:30am 14.1 8.1 -3.2 30 6.9 WSW 19 24 10 13 1014.1 1013.1 0.0
13/12:00am 14.8 8.6 -3.5 28 7.3 SW 20 24 11 13 1013.9 1012.9 0.0
 
Date/Time
EDT
Temp
°C
App
Temp
°C
Dew
Point
°C
Rel
Hum
%
Delta-T
°C
Wind Press
QNH
hPa
Press
MSL
hPa
Rain since
9am
mm
Dir  Spd
km/h
Gust
km/h
Spd
kts
Gust
kts
12/11:30pm 14.5 9.6 -3.3 29 7.1 WSW 13 19 7 10 1013.7 1012.6 0.0
12/11:00pm 16.1 10.1 -3.4 26 7.9 SW 19 24 10 13 1013.3 1012.3 0.0
12/10:30pm 16.5 10.5 -3.0 26 8.0 WSW 19 26 10 14 1012.8 1011.8 0.0
12/10:00pm 17.2 11.2 -1.9 27 8.0 WSW 20 30 11 16 1012.5 1011.5 0.0
12/09:30pm 17.0 11.2 -1.6 28 7.9 SW 19 24 10 13 1012.0 1011.0 0.0
12/09:00pm 18.6 11.9 -1.3 26 8.6 SW 24 35 13 19 1011.5 1010.5 0.0
12/08:30pm 19.1 12.1 -0.8 26 8.7 SW 26 37 14 20 1010.8 1009.8 0.0
12/08:00pm 20.0 12.8 0.5 27 8.9 SW 28 37 15 20 1010.2 1009.1 0.0
12/07:30pm 21.3 13.3 0.5 25 9.5 SW 32 41 17 22 1009.4 1008.4 0.0
12/07:00pm 23.3 14.6 -0.2 21 10.8 WSW 35 48 19 26 1008.7 1007.7 0.0
12/06:30pm 24.3 14.9 -0.1 20 11.3 WSW 39 50 21 27 1007.8 1006.7 0.0
12/06:00pm 25.2 17.3 2.0 22 11.3 WSW 33 44 18 24 1007.4 1006.3 0.0
12/05:34pm 25.9 18.1 1.9 21 11.7 W 32 50 17 27 1007.0 1005.9 0.0
12/05:30pm 26.2 18.5 2.2 21 11.8 W 32 41 17 22 1007.0 1005.9 0.0
12/05:00pm 24.7 16.2 3.4 25 10.6 W 37 56 20 30 1006.8 1005.7 0.0
12/04:50pm 24.7 16.3 5.5 29 9.9 W 39 57 21 31 1006.6 1005.5 0.0
12/04:30pm 24.8 16.0 5.6 29 9.9 WSW 41 54 22 29 1006.3 1005.3 0.0
12/04:09pm 25.6 15.2 2.3 22 11.4 W 46 65 25 35 1005.8 1004.8 0.0
12/04:00pm 26.1 15.6 1.4 20 12.0 W 46 61 25 33 1005.7 1004.7 0.0
12/03:30pm 27.3 17.3 0.9 18 12.7 WSW 43 57 23 31 1005.4 1004.4 0.0
12/03:00pm 29.4 18.5 -6.7 9 15.5 W 43 69 23 37 1005.0 1004.0 0.0
12/02:34pm 30.8 19.8 -7.2 8 16.4 WNW 43 61 23 33 1004.9 1003.8 0.0
12/02:30pm 30.6 19.4 -7.4 8 16.3 W 44 61 24 33 1004.8 1003.7 0.0
12/02:01pm 32.0 21.9 -6.3 8 16.9 W 39 59 21 32 1004.9 1003.8 0.0
12/02:00pm 32.2 22.2 -4.6 9 16.8 WNW 39 52 21 28 1004.9 1003.8 0.0
12/01:31pm 32.0 20.5 -6.3 8 16.9 WNW 46 72 25 39 1004.9 1003.8 0.0
12/01:30pm 32.5 21.4 -6.0 8 17.1 WNW 44 61 24 33 1005.0 1004.0 0.0
12/01:13pm 32.6 23.2 -5.9 8 17.2 NW 35 54 19 29 1005.3 1004.3 0.0
12/01:06pm 32.4 21.5 -6.0 8 17.1 WNW 43 63 23 34 1005.4 1004.4 0.0
12/01:03pm 32.2 20.7 -6.2 8 17.0 WNW 46 65 25 35 1005.5 1004.5 0.0
12/01:00pm 31.6 19.3 -6.6 8 16.8 WNW 50 65 27 35 1005.6 1004.6 0.0
12/12:30pm 30.6 20.9 -5.8 9 16.0 NW 37 65 20 35 1006.0 1005.0 0.0
12/12:00pm 31.1 22.3 -4.1 10 16.1 NW 33 54 18 29 1006.9 1005.8 0.0

Other formats

Comma delimited format used in spreadsheet applications
http://www.bom.gov.au/fwo/IDN60801/IDN60801.95721.axf

JavaScript Object Notation format (JSON) in row-major order
http://www.bom.gov.au/fwo/IDN60801/IDN60801.95721.json

Data quality

Most of these data are generated automatically and are frequently updated. Quality checks on data are not normally performed. It is possible for incorrect values to appear. Refer to information at About Latest Weather Observations and please check the disclaimer before using these data.